Time;durP1;ratioP1;P1;durP2;ratioP2;P2;SDS_P1;SDS_P2;PMS_P1;PMS_P2;Temp;Humidity;BMP_temperature;BMP_pressure;BME280_temperature;BME280_humidity;BME280_pressure;Samples;Min_cycle;Max_cycle;Signal;HPM_P1;HPM_P2
2023/01/12 00:01:35;;;;;;;17.08;2.60;;;8.00;99.90;;;;;;4882419;29;20131;-81
2023/01/12 00:04:02;;;;;;;12.13;2.13;;;8.00;99.90;;;;;;4890870;29;20058;-81
2023/01/12 00:06:27;;;;;;;;;;;8.00;99.90;;;;;;4908803;29;20040;-81
2023/01/12 00:08:53;;;;;;;12.90;1.90;;;7.90;99.90;;;;;;4900291;29;19925;-81
2023/01/12 00:11:20;;;;;;;13.87;2.00;;;7.90;99.90;;;;;;4882292;29;20051;-81
2023/01/12 00:13:46;;;;;;;12.35;1.75;;;7.80;99.90;;;;;;4903005;29;20102;-81
2023/01/12 00:19:07;;;;;;;10.13;1.88;;;7.80;99.90;;;;;;4900452;29;20104;-81
2023/01/12 00:21:38;;;;;;;20.33;3.22;;;7.80;99.90;;;;;;4910611;29;20039;-81
2023/01/12 00:24:07;;;;;;;12.35;2.20;;;7.80;99.90;;;;;;4885606;29;20583;-81
2023/01/12 00:26:33;;;;;;;10.60;2.03;;;7.80;99.90;;;;;;4893797;29;20043;-81
2023/01/12 00:28:58;;;;;;;9.65;2.63;;;7.80;99.90;;;;;;4888937;29;20138;-81
2023/01/12 00:31:27;;;;;;;11.55;2.10;;;7.80;99.90;;;;;;4881308;29;20066;-81
2023/01/12 00:33:52;;;;;;;16.70;2.60;;;7.90;99.90;;;;;;4891990;29;20107;-81
2023/01/12 00:36:18;;;;;;;14.90;2.07;;;7.80;99.90;;;;;;4882568;29;20047;-81
2023/01/12 00:38:44;;;;;;;14.65;2.47;;;7.80;99.90;;;;;;4893502;29;20306;-81
2023/01/12 00:45:20;;;;;;;21.77;3.33;;;7.80;99.90;;;;;;4881055;29;20449;-81
2023/01/12 00:46:46;;;;;;;21.63;3.03;;;7.80;99.90;;;;;;4896793;29;20132;-81
2023/01/12 00:49:12;;;;;;;16.52;2.72;;;7.90;99.90;;;;;;4883781;29;20040;-81
2023/01/12 00:51:38;;;;;;;11.88;2.53;;;7.80;99.90;;;;;;4889573;29;20046;-81
2023/01/12 00:54:07;;;;;;;12.13;2.33;;;7.90;99.90;;;;;;4907408;29;20048;-81
2023/01/12 00:56:33;;;;;;;13.63;2.05;;;7.80;99.90;;;;;;4904789;29;20580;-81
2023/01/12 00:58:59;;;;;;;12.85;2.33;;;7.80;99.90;;;;;;4911472;29;20035;-81
2023/01/12 01:01:25;;;;;;;15.95;2.70;;;7.70;99.90;;;;;;4884336;29;20497;-80
2023/01/12 01:03:51;;;;;;;18.80;2.60;;;7.80;99.90;;;;;;4905308;29;20040;-80
2023/01/12 01:06:16;;;;;;;8.57;2.10;;;7.80;99.90;;;;;;4906533;29;20039;-81
2023/01/12 01:08:42;;;;;;;10.73;2.30;;;7.90;99.90;;;;;;4904102;29;20127;-81
2023/01/12 01:11:10;;;;;;;18.50;2.97;;;8.30;99.90;;;;;;4888646;29;20294;-81
2023/01/12 01:13:42;;;;;;;16.10;3.03;;;7.90;99.90;;;;;;4894085;29;20040;-81
2023/01/12 01:16:10;;;;;;;19.52;2.83;;;8.00;99.90;;;;;;4894418;29;20048;-81
2023/01/12 01:18:36;;;;;;;13.57;2.15;;;7.80;99.90;;;;;;4909252;29;20455;-81
2023/01/12 01:21:02;;;;;;;18.52;2.53;;;7.90;99.90;;;;;;4907207;29;20063;-80
2023/01/12 01:23:31;;;;;;;20.63;2.55;;;7.90;99.90;;;;;;4896467;29;20404;-81
2023/01/12 01:26:02;;;;;;;12.18;1.98;;;7.90;99.90;;;;;;4894284;29;20040;-80
2023/01/12 01:28:27;;;;;;;9.82;2.10;;;8.00;99.90;;;;;;4911765;29;20119;-81
2023/01/12 01:31:02;;;;;;;10.07;2.10;;;7.90;99.90;;;;;;4886448;29;20048;-80
2023/01/12 01:33:28;;;;;;;11.77;2.20;;;7.80;99.90;;;;;;4907302;29;20094;-80
2023/01/12 01:35:55;;;;;;;11.07;2.15;;;7.80;99.90;;;;;;4881990;29;20044;-80
2023/01/12 01:38:21;;;;;;;15.23;2.20;;;7.80;99.90;;;;;;4903860;29;20122;-81
2023/01/12 01:40:46;;;;;;;17.67;2.55;;;7.90;99.90;;;;;;4889392;29;20078;-81
2023/01/12 01:43:15;;;;;;;21.02;2.85;;;7.90;99.90;;;;;;4889179;29;20398;-81
2023/01/12 01:45:44;;;;;;;14.65;2.20;;;7.90;99.90;;;;;;4889584;29;21124;-81
2023/01/12 01:48:14;;;;;;;15.18;2.00;;;7.90;99.90;;;;;;4907231;29;20512;-81
2023/01/12 01:50:52;;;;;;;21.80;3.00;;;8.30;99.90;;;;;;4903291;29;20083;-81
2023/01/12 01:53:21;;;;;;;18.48;2.42;;;8.00;99.90;;;;;;4907855;29;20036;-81
2023/01/12 01:55:51;;;;;;;21.25;2.38;;;8.10;99.90;;;;;;4906491;29;20185;-81
2023/01/12 01:58:24;;;;;;;14.43;2.28;;;8.00;99.90;;;;;;4907735;29;20048;-82
2023/01/12 02:00:51;;;;;;;16.42;2.47;;;8.00;99.90;;;;;;4905333;29;20036;-81
2023/01/12 02:03:17;;;;;;;14.95;2.40;;;8.00;99.90;;;;;;4887368;29;20516;-81
2023/01/12 02:05:44;;;;;;;;;;;8.10;99.90;;;;;;4891210;29;20040;-81
2023/01/12 02:08:17;;;;;;;17.15;2.40;;;8.10;99.90;;;;;;4893837;29;20061;-81
2023/01/12 02:10:43;;;;;;;13.57;1.95;;;8.10;99.90;;;;;;4890146;29;20044;-81
2023/01/12 02:16:19;;;;;;;17.55;3.03;;;8.10;99.90;;;;;;4903403;29;20453;-81
2023/01/12 02:18:45;;;;;;;22.05;3.15;;;8.10;99.90;;;;;;4888180;29;20552;-81
2023/01/12 02:22:10;;;;;;;15.77;3.13;;;8.10;99.90;;;;;;4898876;29;20044;-81
2023/01/12 02:25:20;;;;;;;13.60;2.30;;;8.20;99.90;;;;;;4831980;29;20042;-81
2023/01/12 02:27:54;;;;;;;10.40;2.80;;;8.20;99.90;;;;;;4850341;29;20119;-81
2023/01/12 02:30:57;;;;;;;15.73;2.38;;;8.20;99.90;;;;;;4834979;29;20405;-81
2023/01/12 02:33:50;;;;;;;13.90;2.45;;;8.60;99.90;;;;;;4897169;29;20087;-80
2023/01/12 02:36:24;;;;;;;16.73;3.13;;;8.30;99.90;;;;;;4899257;29;20040;-80
2023/01/12 02:39:16;;;;;;;16.95;2.88;;;8.30;99.90;;;;;;4911910;29;20044;-80
2023/01/12 02:44:57;;;;;;;18.35;2.95;;;8.30;99.90;;;;;;4905583;29;20115;-79
2023/01/12 02:47:34;;;;;;;14.80;2.85;;;8.30;99.90;;;;;;4907261;29;20119;-79
2023/01/12 02:50:01;;;;;;;;;;;8.30;99.90;;;;;;4911227;29;20425;-79
2023/01/12 02:52:31;;;;;;;14.98;2.88;;;8.20;99.90;;;;;;4893156;29;19923;-79
2023/01/12 02:54:59;;;;;;;20.65;2.58;;;8.30;99.90;;;;;;4911252;29;20052;-79
2023/01/12 02:57:26;;;;;;;8.85;1.80;;;8.20;99.90;;;;;;4895194;29;20510;-79
2023/01/12 02:59:54;;;;;;;17.98;2.63;;;8.30;99.90;;;;;;4891103;29;20043;-79
2023/01/12 03:02:23;;;;;;;16.52;2.78;;;8.30;99.90;;;;;;4906721;29;20047;-79
2023/01/12 03:04:49;;;;;;;9.65;2.55;;;8.30;99.90;;;;;;4906837;29;20032;-79
2023/01/12 03:07:27;;;;;;;15.15;2.53;;;8.40;99.90;;;;;;4883681;29;20040;-80
2023/01/12 03:10:11;;;;;;;12.35;2.25;;;8.40;99.90;;;;;;4909414;29;20035;-80
2023/01/12 03:12:42;;;;;;;20.45;3.90;;;8.40;99.90;;;;;;4905353;29;20086;-80
2023/01/12 03:15:10;;;;;;;17.85;3.75;;;8.40;99.90;;;;;;4911089;29;20536;-77
2023/01/12 03:17:44;;;;;;;11.88;2.47;;;8.40;99.90;;;;;;4892505;29;20435;-77
2023/01/12 03:20:25;;;;;;;13.55;2.55;;;8.40;99.90;;;;;;4892623;29;20086;-79
2023/01/12 03:22:57;;;;;;;12.02;3.05;;;8.40;99.90;;;;;;4908572;29;20040;-77
2023/01/12 03:25:27;;;;;;;17.30;3.05;;;8.40;99.90;;;;;;4906245;29;20040;-78
2023/01/12 03:27:55;;;;;;;14.48;2.92;;;8.50;99.90;;;;;;4892582;29;20044;-78
2023/01/12 03:30:32;;;;;;;18.13;2.88;;;8.50;99.90;;;;;;4913449;29;20099;-78
2023/01/12 03:32:58;;;;;;;;;;;8.50;99.90;;;;;;4902133;29;20501;-77
2023/01/12 03:35:26;;;;;;;14.05;2.22;;;8.50;99.90;;;;;;4906942;29;19925;-78
2023/01/12 03:37:59;;;;;;;13.18;2.28;;;8.50;99.90;;;;;;4912899;29;20039;-77
2023/01/12 03:40:34;;;;;;;14.35;2.95;;;8.50;99.90;;;;;;4910072;29;20043;-78
2023/01/12 03:43:05;;;;;;;13.23;3.10;;;8.60;99.90;;;;;;4914350;29;20044;-78
2023/01/12 03:45:45;;;;;;;14.10;3.25;;;8.60;99.90;;;;;;4903698;29;20044;-77
2023/01/12 03:48:25;;;;;;;8.45;2.97;;;8.50;99.90;;;;;;4910438;29;20043;-77
2023/01/12 03:51:08;;;;;;;19.05;3.38;;;8.60;99.90;;;;;;4908024;29;20074;-79
2023/01/12 03:53:37;;;;;;;17.92;2.83;;;8.60;99.90;;;;;;4896808;29;20047;-79
2023/01/12 03:56:06;;;;;;;15.70;2.60;;;8.60;99.90;;;;;;4895309;29;20039;-79
2023/01/12 03:58:36;;;;;;;10.65;2.05;;;8.50;99.90;;;;;;4907355;29;20035;-79
2023/01/12 04:01:03;;;;;;;20.15;2.10;;;8.50;99.90;;;;;;4891220;29;20043;-79
2023/01/12 04:03:29;;;;;;;14.68;2.10;;;8.60;99.90;;;;;;4908065;29;20123;-79
2023/01/12 04:05:54;;;;;;;8.25;1.60;;;8.60;99.90;;;;;;4885505;29;20447;-79
2023/01/12 04:08:21;;;;;;;13.02;2.65;;;8.60;99.90;;;;;;4889915;29;20095;-79
2023/01/12 04:10:46;;;;;;;18.10;3.10;;;8.70;99.90;;;;;;4894098;29;20031;-79
2023/01/12 04:13:15;;;;;;;12.13;2.15;;;8.60;99.90;;;;;;4907540;29;20114;-79
2023/01/12 04:15:41;;;;;;;15.07;2.15;;;8.70;99.90;;;;;;4883444;29;20051;-79
2023/01/12 04:18:08;;;;;;;15.57;2.37;;;8.70;99.90;;;;;;4890342;29;20052;-79
2023/01/12 04:20:34;;;;;;;14.85;2.85;;;8.70;99.90;;;;;;4895904;29;20755;-79
2023/01/12 04:23:00;;;;;;;9.45;2.40;;;8.60;99.90;;;;;;4889572;29;20040;-80
2023/01/12 04:25:26;;;;;;;12.95;2.10;;;8.70;99.90;;;;;;4891421;29;20053;-79
2023/01/12 04:27:55;;;;;;;6.63;2.40;;;8.70;99.90;;;;;;4908526;29;20039;-79
2023/01/12 04:30:25;;;;;;;12.85;1.83;;;8.70;99.90;;;;;;4889700;29;20040;-79
2023/01/12 04:32:51;;;;;;;10.68;1.85;;;8.70;99.90;;;;;;4905635;29;20044;-79
2023/01/12 04:35:18;;;;;;;11.50;2.45;;;8.70;99.90;;;;;;4905943;29;20131;-79
2023/01/12 04:37:44;;;;;;;8.60;1.58;;;8.80;99.90;;;;;;4906866;29;20109;-79
2023/01/12 04:40:12;;;;;;;7.22;1.73;;;8.80;99.90;;;;;;4883885;29;20142;-80
2023/01/12 04:43:02;;;;;;;7.57;1.65;;;8.80;99.90;;;;;;4895980;29;20047;-79
2023/01/12 04:45:31;;;;;;;9.13;1.30;;;8.70;99.90;;;;;;4907476;29;20039;-80
2023/01/12 04:48:09;;;;;;;6.45;1.33;;;9.40;99.90;;;;;;4891829;29;20036;-80
2023/01/12 04:50:35;;;;;;;8.95;1.30;;;8.70;99.90;;;;;;4905605;29;20090;-79
2023/01/12 04:53:02;;;;;;;;;;;8.70;99.90;;;;;;4894132;29;20098;-79
2023/01/12 04:55:28;;;;;;;3.00;1.45;;;8.70;99.90;;;;;;4891849;29;19967;-80
2023/01/12 04:57:55;;;;;;;7.90;1.50;;;8.70;99.90;;;;;;4881852;29;20086;-79
2023/01/12 05:00:21;;;;;;;6.38;1.23;;;8.70;99.90;;;;;;4899898;29;20076;-79
2023/01/12 05:02:46;;;;;;;3.58;1.20;;;8.70;99.90;;;;;;4887655;29;20043;-79
2023/01/12 05:05:15;;;;;;;5.13;1.20;;;8.60;99.90;;;;;;4866019;29;20465;-79
2023/01/12 05:10:21;;;;;;;6.38;1.30;;;8.50;99.90;;;;;;4911227;29;20035;-78
2023/01/12 05:10:28;;;;;;;3.22;0.90;;;8.50;99.90;;;;;;4913951;29;20099;-79
2023/01/12 05:12:55;;;;;;;5.90;1.00;;;8.60;99.90;;;;;;4908808;29;20044;-78
2023/01/12 05:15:21;;;;;;;;;;;8.50;99.90;;;;;;4896166;29;20044;-78
2023/01/12 05:17:47;;;;;;;6.10;0.98;;;8.50;99.90;;;;;;4893407;29;19966;-79
2023/01/12 05:20:16;;;;;;;6.70;1.87;;;8.50;99.90;;;;;;4886373;29;20044;-77
2023/01/12 05:22:41;;;;;;;6.95;1.50;;;8.40;99.90;;;;;;4909161;29;20845;-78
2023/01/12 05:25:07;;;;;;;5.13;1.03;;;8.50;99.90;;;;;;4895692;29;20051;-77
2023/01/12 05:27:33;;;;;;;4.60;1.67;;;8.40;99.90;;;;;;4889656;29;20648;-78
2023/01/12 05:29:58;;;;;;;9.32;1.40;;;8.40;99.90;;;;;;4878639;29;20110;-78
2023/01/12 05:32:25;;;;;;;3.80;1.10;;;8.40;99.90;;;;;;4885313;29;20048;-77
2023/01/12 05:34:51;;;;;;;3.58;1.40;;;8.40;99.90;;;;;;4905555;29;20052;-77
2023/01/12 05:37:17;;;;;;;3.25;1.55;;;8.40;99.90;;;;;;4908891;29;20418;-77
2023/01/12 05:39:42;;;;;;;4.13;1.70;;;8.40;99.90;;;;;;4911350;29;20047;-78
2023/01/12 05:44:52;;;;;;;3.78;1.27;;;8.30;99.90;;;;;;4906723;29;20301;-77
2023/01/12 05:47:17;;;;;;;4.70;1.30;;;8.40;99.90;;;;;;4889765;29;20040;-77
2023/01/12 05:49:43;;;;;;;3.25;1.20;;;8.30;99.90;;;;;;4889332;29;20039;-77
2023/01/12 05:52:09;;;;;;;4.68;1.23;;;8.30;99.90;;;;;;4892809;29;20047;-76
2023/01/12 05:54:35;;;;;;;2.72;0.88;;;8.30;99.90;;;;;;4912871;29;20142;-76
2023/01/12 05:57:00;;;;;;;2.50;0.93;;;8.40;99.90;;;;;;4909229;29;20052;-76
2023/01/12 05:59:26;;;;;;;3.20;0.80;;;8.40;99.90;;;;;;4914561;29;20048;-77
2023/01/12 06:01:52;;;;;;;6.63;1.20;;;8.50;99.90;;;;;;4905561;29;20327;-77
2023/01/12 06:04:17;;;;;;;2.00;1.00;;;8.50;99.90;;;;;;4896078;29;20095;-77
2023/01/12 06:06:45;;;;;;;2.33;0.80;;;8.50;99.90;;;;;;4886587;29;20042;-77
2023/01/12 06:09:10;;;;;;;1.10;0.80;;;8.60;99.90;;;;;;4917967;29;20039;-77
2023/01/12 06:14:20;;;;;;;1.58;0.90;;;8.60;99.90;;;;;;4912448;29;20047;-77
2023/01/12 06:16:46;;;;;;;3.30;0.95;;;8.50;99.90;;;;;;4888036;29;20501;-77
2023/01/12 06:19:12;;;;;;;1.83;0.83;;;8.60;99.90;;;;;;4895572;29;20460;-77
2023/01/12 06:21:39;;;;;;;1.52;0.90;;;8.70;99.90;;;;;;4902065;29;20044;-77
2023/01/12 06:24:05;;;;;;;1.98;1.05;;;8.70;99.90;;;;;;4892703;29;20072;-77
2023/01/12 06:26:31;;;;;;;3.00;0.90;;;8.80;99.90;;;;;;4899273;29;20115;-77
2023/01/12 06:28:56;;;;;;;1.13;0.70;;;8.80;99.90;;;;;;4896514;29;20139;-77
2023/01/12 06:31:22;;;;;;;1.60;0.70;;;8.80;99.90;;;;;;4882574;29;20044;-77
2023/01/12 06:33:48;;;;;;;1.53;0.63;;;8.80;99.90;;;;;;4892479;29;20299;-78
2023/01/12 06:36:13;;;;;;;1.13;0.88;;;8.90;99.90;;;;;;4917603;29;20316;-77
2023/01/12 06:38:40;;;;;;;0.70;0.50;;;8.80;99.90;;;;;;4917588;29;20465;-77
2023/01/12 06:42:27;;;;;;;2.35;0.65;;;8.80;99.90;;;;;;4889861;29;20048;-77
2023/01/12 06:43:57;;;;;;;0.65;0.60;;;8.80;99.90;;;;;;4898187;29;20540;-77
2023/01/12 06:46:25;;;;;;;2.22;0.70;;;8.80;99.90;;;;;;4883093;29;20036;-77
2023/01/12 06:48:51;;;;;;;1.45;0.50;;;8.70;99.90;;;;;;4908189;29;20374;-78
2023/01/12 06:51:18;;;;;;;1.63;0.60;;;8.80;99.90;;;;;;4885940;29;20073;-77
2023/01/12 06:53:43;;;;;;;2.20;0.50;;;8.90;99.90;;;;;;4894814;29;20047;-77
2023/01/12 06:56:09;;;;;;;1.33;0.70;;;8.90;99.90;;;;;;4898184;29;20135;-77
2023/01/12 06:58:35;;;;;;;2.15;0.70;;;9.00;99.90;;;;;;4882957;29;20052;-77
2023/01/12 07:01:02;;;;;;;1.47;0.80;;;8.90;99.90;;;;;;4897940;29;20044;-77
2023/01/12 07:03:27;;;;;;;4.07;1.10;;;9.00;99.90;;;;;;4882662;29;20304;-77
2023/01/12 07:05:56;;;;;;;4.18;1.17;;;9.10;99.90;;;;;;4897735;29;20078;-78
2023/01/12 07:08:22;;;;;;;2.72;1.08;;;9.20;99.90;;;;;;4898885;29;20051;-78
2023/01/12 07:10:47;;;;;;;3.25;1.10;;;9.30;99.90;;;;;;4909458;29;20047;-78
2023/01/12 07:13:13;;;;;;;7.20;1.90;;;9.30;99.90;;;;;;4904448;29;20051;-78
2023/01/12 07:15:39;;;;;;;3.15;1.52;;;9.30;99.90;;;;;;4895416;29;20075;-79
2023/01/12 07:18:05;;;;;;;3.35;1.55;;;9.50;99.90;;;;;;4907300;29;20139;-79
2023/01/12 07:20:31;;;;;;;4.30;1.88;;;9.50;99.90;;;;;;4883791;29;20397;-79
2023/01/12 07:22:56;;;;;;;5.72;1.83;;;9.40;99.90;;;;;;4890261;29;20052;-79
2023/01/12 07:25:23;;;;;;;7.07;2.03;;;9.40;99.90;;;;;;4898326;29;20191;-79
2023/01/12 07:27:51;;;;;;;5.90;1.60;;;9.30;99.90;;;;;;4914370;29;20318;-78
2023/01/12 07:30:19;;;;;;;9.20;1.92;;;9.40;99.90;;;;;;4913251;29;20052;-78
2023/01/12 07:32:44;;;;;;;3.65;1.60;;;9.40;99.90;;;;;;4898198;29;20044;-78
2023/01/12 07:35:10;;;;;;;6.10;2.20;;;9.50;99.90;;;;;;4914170;29;20036;-78
2023/01/12 07:37:36;;;;;;;9.45;1.80;;;9.40;99.90;;;;;;4899946;29;20044;-77
2023/01/12 07:40:01;;;;;;;7.60;2.10;;;9.50;99.90;;;;;;4882100;29;20059;-78
2023/01/12 07:42:27;;;;;;;11.47;1.93;;;9.50;99.90;;;;;;4881890;29;20308;-78
2023/01/12 07:44:53;;;;;;;11.50;2.23;;;9.50;99.90;;;;;;4913951;29;20827;-78
2023/01/12 07:47:19;;;;;;;7.38;2.25;;;9.90;99.90;;;;;;4897166;29;20291;-78
2023/01/12 07:49:44;;;;;;;13.88;2.10;;;9.60;99.90;;;;;;4882011;29;20043;-78
2023/01/12 07:52:11;;;;;;;11.35;1.90;;;9.60;99.90;;;;;;4881640;29;20044;-79
2023/01/12 07:54:36;;;;;;;;;;;9.60;99.90;;;;;;4883207;29;20099;-81
2023/01/12 07:57:03;;;;;;;7.88;2.00;;;9.70;99.90;;;;;;4897287;29;19919;-78
2023/01/12 07:59:29;;;;;;;10.00;2.40;;;9.70;99.90;;;;;;4881728;29;20468;-78
2023/01/12 08:01:54;;;;;;;12.73;2.72;;;9.90;99.90;;;;;;4893777;29;20079;-79
2023/01/12 08:04:21;;;;;;;16.33;2.53;;;9.80;99.90;;;;;;4890396;29;20045;-78
2023/01/12 08:06:47;;;;;;;9.88;2.10;;;9.90;99.90;;;;;;4897639;29;20360;-78
2023/01/12 08:09:13;;;;;;;15.00;3.25;;;9.90;99.90;;;;;;4909887;29;20123;-79
2023/01/12 08:11:39;;;;;;;9.43;2.28;;;10.00;99.90;;;;;;4901027;29;20043;-79
2023/01/12 08:14:05;;;;;;;13.63;2.57;;;10.00;99.90;;;;;;4897382;29;20362;-78
2023/01/12 08:16:36;;;;;;;15.45;2.15;;;10.00;99.90;;;;;;4909190;29;20386;-79
2023/01/12 08:19:08;;;;;;;12.18;2.10;;;10.00;99.90;;;;;;4908963;29;20052;-79
2023/01/12 08:21:44;;;;;;;14.32;2.55;;;10.10;99.90;;;;;;4899051;29;20098;-78
2023/01/12 08:24:18;;;;;;;12.75;2.20;;;10.20;99.90;;;;;;4899545;29;20043;-78
2023/01/12 08:26:45;;;;;;;12.18;2.15;;;10.20;99.90;;;;;;4915709;29;20044;-78
2023/01/12 08:29:31;;;;;;;19.17;2.25;;;10.20;99.90;;;;;;4915331;29;20090;-79
2023/01/12 08:32:03;;;;;;;12.82;2.17;;;10.20;99.90;;;;;;4911544;29;20405;-78
2023/01/12 08:34:29;;;;;;;17.30;2.47;;;10.20;99.90;;;;;;4881642;29;20044;-77
2023/01/12 08:36:59;;;;;;;22.52;2.70;;;10.20;99.90;;;;;;4880508;29;20112;-78
2023/01/12 08:39:25;;;;;;;18.23;2.20;;;10.20;99.90;;;;;;4898094;29;20044;-78
2023/01/12 08:41:50;;;;;;;13.82;2.53;;;10.20;99.90;;;;;;4899792;29;20381;-78
2023/01/12 08:44:16;;;;;;;16.93;2.33;;;10.20;99.90;;;;;;4910455;29;20036;-78
2023/01/12 08:46:53;;;;;;;16.98;3.00;;;10.20;99.90;;;;;;4911222;29;20047;-78
2023/01/12 08:49:22;;;;;;;20.08;3.33;;;10.30;99.90;;;;;;4905732;29;20492;-78
2023/01/12 08:51:48;;;;;;;15.18;2.28;;;10.30;99.90;;;;;;4881726;29;20036;-78
2023/01/12 08:54:16;;;;;;;15.75;2.30;;;10.30;99.90;;;;;;4896335;29;20048;-78
2023/01/12 08:56:42;;;;;;;13.07;2.15;;;10.30;99.90;;;;;;4890770;29;20576;-79
2023/01/12 08:59:08;;;;;;;18.15;2.53;;;10.40;99.90;;;;;;4881395;29;20058;-79
2023/01/12 09:01:34;;;;;;;13.60;2.17;;;10.40;99.90;;;;;;4897234;29;20123;-78
2023/01/12 09:04:00;;;;;;;12.98;1.88;;;10.40;99.90;;;;;;4890788;29;20047;-78
2023/01/12 09:06:31;;;;;;;11.45;2.25;;;10.40;99.90;;;;;;4915896;29;20035;-78
2023/01/12 09:09:00;;;;;;;13.90;2.17;;;10.40;99.90;;;;;;4892705;29;20036;-78
2023/01/12 09:11:27;;;;;;;18.45;2.90;;;10.40;99.90;;;;;;4901971;29;20039;-77
2023/01/12 09:13:54;;;;;;;13.93;3.10;;;10.40;99.90;;;;;;4900791;29;20044;-77
2023/01/12 09:16:21;;;;;;;13.25;2.20;;;10.40;99.90;;;;;;4907077;29;20039;-77
2023/01/12 09:18:47;;;;;;;14.95;2.22;;;10.40;99.90;;;;;;4914399;29;20510;-77
2023/01/12 09:21:16;;;;;;;12.48;2.35;;;10.40;99.90;;;;;;4883534;29;20188;-77
2023/01/12 09:23:42;;;;;;;25.15;2.67;;;10.40;99.90;;;;;;4910701;29;20031;-77
2023/01/12 09:26:14;;;;;;;14.77;2.92;;;10.40;99.90;;;;;;4918567;29;20126;-77
2023/01/12 09:28:43;;;;;;;10.35;2.20;;;10.40;99.90;;;;;;4904717;29;20100;-77
2023/01/12 09:31:11;;;;;;;11.15;2.30;;;10.40;99.90;;;;;;4900026;29;20044;-77
2023/01/12 09:33:41;;;;;;;16.48;2.22;;;10.50;99.90;;;;;;4919287;29;20039;-78
2023/01/12 09:36:15;;;;;;;10.60;1.98;;;10.50;99.90;;;;;;4918485;29;20044;-78
2023/01/12 09:38:43;;;;;;;19.27;2.70;;;11.50;99.90;;;;;;4902443;29;20445;-78
2023/01/12 09:46:57;;;;;;;12.20;2.38;;;10.50;99.90;;;;;;4884100;29;20044;-78
2023/01/12 09:47:09;;;;;;;14.98;3.00;;;10.60;99.90;;;;;;4915578;29;20051;-79
2023/01/12 09:49:38;;;;;;;9.82;1.95;;;10.60;99.90;;;;;;4919523;29;20483;-79
2023/01/12 09:52:16;;;;;;;15.15;2.03;;;10.60;99.90;;;;;;4918004;29;20504;-79
2023/01/12 09:54:44;;;;;;;14.40;2.10;;;10.70;99.90;;;;;;4907716;29;20048;-79
2023/01/12 09:57:21;;;;;;;11.90;2.63;;;10.70;99.90;;;;;;4899556;29;20044;-79
2023/01/12 10:00:03;;;;;;;12.30;2.28;;;10.70;99.90;;;;;;4900031;29;20388;-79
2023/01/12 10:02:34;;;;;;;11.13;1.65;;;10.80;99.90;;;;;;4885870;29;20060;-79
2023/01/12 10:05:03;;;;;;;17.42;2.30;;;10.80;99.90;;;;;;4902873;29;20052;-79
2023/01/12 10:07:28;;;;;;;14.60;2.15;;;10.80;99.90;;;;;;4899826;29;20043;-79
2023/01/12 10:09:54;;;;;;;11.48;1.83;;;10.70;99.90;;;;;;4889216;29;20044;-79
2023/01/12 10:12:20;;;;;;;16.00;2.13;;;10.70;99.90;;;;;;4881559;29;20048;-79
2023/01/12 10:15:22;;;;;;;8.88;1.65;;;10.90;99.90;;;;;;4899816;29;20048;-79
2023/01/12 10:17:59;;;;;;;9.10;1.48;;;10.90;99.90;;;;;;4897747;29;20053;-79
2023/01/12 10:20:44;;;;;;;12.38;1.95;;;10.90;99.90;;;;;;4902087;29;20135;-79
2023/01/12 10:23:15;;;;;;;11.18;1.80;;;10.90;99.90;;;;;;4901056;29;20048;-78
2023/01/12 10:25:47;;;;;;;13.90;2.25;;;11.00;99.90;;;;;;4902770;29;20036;-79
2023/01/12 10:28:25;;;;;;;10.45;1.80;;;11.00;99.90;;;;;;4897059;29;20508;-79
2023/01/12 10:30:52;;;;;;;16.83;2.50;;;11.00;99.90;;;;;;4899439;29;20047;-79
2023/01/12 10:33:22;;;;;;;;;;;11.00;99.90;;;;;;4884233;29;20329;-79
2023/01/12 10:35:50;;;;;;;13.55;1.85;;;11.10;99.90;;;;;;4897908;29;20386;-79
2023/01/12 10:38:25;;;;;;;9.98;2.28;;;11.10;99.90;;;;;;4917617;29;20043;-79
2023/01/12 10:41:09;;;;;;;12.43;1.83;;;11.10;99.90;;;;;;4902484;29;20043;-79
2023/01/12 10:43:36;;;;;;;10.55;1.33;;;11.10;99.90;;;;;;4885143;29;20036;-79
2023/01/12 10:46:08;;;;;;;13.05;2.13;;;11.10;99.90;;;;;;4886057;29;20044;-79
2023/01/12 10:48:34;;;;;;;11.27;1.77;;;11.10;99.90;;;;;;4883867;29;20032;-79
2023/01/12 10:51:04;;;;;;;12.75;2.65;;;11.10;99.90;;;;;;4901588;29;20468;-79
2023/01/12 10:53:45;;;;;;;9.98;1.50;;;11.10;99.90;;;;;;4900128;29;20036;-78
2023/01/12 10:56:20;;;;;;;10.68;1.75;;;11.00;99.90;;;;;;4917215;29;20050;-78
2023/01/12 10:58:56;;;;;;;14.43;2.33;;;11.00;99.90;;;;;;4902603;29;20122;-79
2023/01/12 11:01:22;;;;;;;11.35;2.10;;;11.00;99.90;;;;;;4917263;29;20504;-78
2023/01/12 11:03:48;;;;;;;14.27;1.73;;;10.90;99.90;;;;;;4891686;29;20040;-79
2023/01/12 11:06:29;;;;;;;11.85;2.00;;;10.90;99.90;;;;;;4898706;29;20386;-78
2023/01/12 11:08:56;;;;;;;10.10;1.85;;;10.90;99.90;;;;;;4894988;29;20567;-78
2023/01/12 11:11:31;;;;;;;;;;;11.00;99.90;;;;;;4917707;29;20039;-79
2023/01/12 11:14:00;;;;;;;13.75;1.88;;;11.10;99.90;;;;;;4903659;29;19919;-79
2023/01/12 11:16:31;;;;;;;11.48;1.67;;;11.20;99.90;;;;;;4905026;29;20035;-79
2023/01/12 11:19:15;;;;;;;11.82;2.38;;;11.30;99.90;;;;;;4899448;29;20039;-79
2023/01/12 11:21:48;;;;;;;11.27;1.80;;;11.40;99.90;;;;;;4884730;29;20067;-79
2023/01/12 11:24:30;;;;;;;11.57;2.20;;;11.40;99.90;;;;;;4898522;29;20115;-79
2023/01/12 11:27:05;;;;;;;11.55;2.75;;;11.40;99.90;;;;;;4898729;29;20040;-79
2023/01/12 11:29:50;;;;;;;12.52;2.10;;;11.40;99.90;;;;;;4896839;29;20174;-79
2023/01/12 11:32:38;;;;;;;15.50;1.65;;;11.30;99.90;;;;;;4888816;29;20123;-80
2023/01/12 11:35:16;;;;;;;12.80;1.98;;;11.30;99.90;;;;;;4888333;29;20047;-79
2023/01/12 11:37:44;;;;;;;11.50;1.65;;;11.40;99.90;;;;;;4896748;29;20048;-79
2023/01/12 11:40:40;;;;;;;13.68;1.98;;;11.40;99.90;;;;;;4886443;29;20048;-80
2023/01/12 11:46:20;;;;;;;7.93;1.35;;;11.40;99.90;;;;;;4897634;29;20107;-80
2023/01/12 11:49:05;;;;;;;11.25;2.22;;;11.60;99.90;;;;;;4898317;29;20139;-80
2023/01/12 11:51:31;;;;;;;12.48;2.15;;;11.70;99.90;;;;;;4891045;29;20188;-80
2023/01/12 11:53:57;;;;;;;12.07;2.13;;;11.80;99.90;;;;;;4882709;29;20123;-80
2023/01/12 11:56:41;;;;;;;12.13;2.00;;;11.90;99.90;;;;;;4897563;29;20119;-80
2023/01/12 11:59:24;;;;;;;11.70;2.03;;;12.00;99.90;;;;;;4884993;29;20123;-80
2023/01/12 12:02:10;;;;;;;11.63;1.88;;;12.30;99.90;;;;;;4900290;29;20046;-80
2023/01/12 12:04:51;;;;;;;10.68;1.95;;;12.50;99.90;;;;;;4900973;29;20040;-80
2023/01/12 12:07:57;;;;;;;9.13;1.45;;;12.60;99.90;;;;;;4900368;29;20082;-80
2023/01/12 12:11:13;;;;;;;9.38;1.35;;;12.60;99.90;;;;;;4805411;29;20042;-81
2023/01/12 12:13:42;;;;;;;8.13;1.60;;;12.40;99.90;;;;;;4821874;29;20125;-80
2023/01/12 12:16:39;;;;;;;10.02;1.60;;;12.20;99.90;;;;;;4809290;29;20078;-80
2023/01/12 12:19:13;;;;;;;6.38;1.58;;;12.10;99.90;;;;;;4844925;29;20044;-80
2023/01/12 12:22:16;;;;;;;12.38;1.75;;;12.00;99.90;;;;;;4909408;29;20044;-80
2023/01/12 12:25:00;;;;;;;9.68;1.70;;;11.90;99.90;;;;;;4882131;29;20051;-80
2023/01/12 12:27:45;;;;;;;9.55;1.33;;;11.80;99.90;;;;;;4896680;29;20497;-81
2023/01/12 12:30:31;;;;;;;11.65;1.80;;;11.80;99.90;;;;;;4894513;29;20441;-80
2023/01/12 12:33:38;;;;;;;10.90;2.05;;;11.70;99.90;;;;;;4908916;29;20111;-80
2023/01/12 12:36:34;;;;;;;9.45;1.75;;;11.70;99.90;;;;;;4896681;29;20070;-80
2023/01/12 12:39:12;;;;;;;11.55;1.80;;;11.60;99.90;;;;;;4895909;29;20571;-81
2023/01/12 12:45:15;;;;;;;12.77;1.67;;;11.60;99.90;;;;;;4903512;29;20056;-80
2023/01/12 12:47:59;;;;;;;11.98;1.70;;;11.50;99.90;;;;;;4899250;29;20040;-81
2023/01/12 12:50:45;;;;;;;12.48;2.28;;;11.40;99.90;;;;;;4901056;29;20044;-80
2023/01/12 12:53:24;;;;;;;11.65;1.73;;;11.40;99.90;;;;;;4907783;29;20066;-79
2023/01/12 12:55:51;;;;;;;10.05;1.70;;;11.40;99.90;;;;;;4916617;29;20452;-80
2023/01/12 12:58:20;;;;;;;8.27;1.90;;;11.40;99.90;;;;;;4915821;29;20528;-79
2023/01/12 13:00:47;;;;;;;9.75;1.65;;;11.30;99.90;;;;;;4899802;29;20163;-80
2023/01/12 13:03:40;;;;;;;15.57;1.80;;;11.30;99.90;;;;;;4882792;29;20050;-80
2023/01/12 13:06:24;;;;;;;12.18;2.22;;;11.30;99.90;;;;;;4897142;29;20052;-80
2023/01/12 13:09:14;;;;;;;14.05;2.08;;;11.30;99.90;;;;;;4897158;29;20095;-80
2023/01/12 13:11:57;;;;;;;13.77;2.00;;;11.30;99.90;;;;;;4895833;29;20059;-80
2023/01/12 13:14:38;;;;;;;9.23;1.75;;;11.30;99.90;;;;;;4915288;29;20052;-80
2023/01/12 13:17:19;;;;;;;13.27;1.80;;;11.30;99.90;;;;;;4881945;29;20412;-80
2023/01/12 13:20:03;;;;;;;13.38;2.05;;;11.30;99.90;;;;;;4892849;29;20421;-80
2023/01/12 13:22:42;;;;;;;16.63;2.33;;;11.20;99.90;;;;;;4881201;29;20378;-80
2023/01/12 13:25:23;;;;;;;8.18;1.73;;;11.30;99.90;;;;;;4892985;29;20078;-80
2023/01/12 13:28:00;;;;;;;12.73;2.47;;;11.30;99.90;;;;;;4914613;29;20035;-81
2023/01/12 13:30:29;;;;;;;11.45;2.03;;;11.30;99.90;;;;;;4878644;29;20185;-81
2023/01/12 13:33:16;;;;;;;9.77;1.63;;;11.30;99.90;;;;;;4878934;29;20052;-81
2023/01/12 13:35:45;;;;;;;9.57;1.42;;;11.30;99.90;;;;;;4880721;29;20040;-80
2023/01/12 13:38:30;;;;;;;9.63;1.92;;;11.30;99.90;;;;;;4881826;29;20413;-81